Herenthout, Belgium
Current Conditions -  °F | °C
As of 6:20 PM on Friday 19 Dec 2014 (Local Time) from EBAW Reporting Station
Clear Clear  
Wind Chill: 39°   Ceiling: Unl
Heat Index: 45°   Visibility: 6mi
Dew Point: 37°   Wind: 12mph
Humidity: 76%   Direction: 260°W
Pressure: 30.03"   Gusts: NA
Location:  51.14°N, 4.76°E
Report Text: EBAW 191720Z 26010KT CAVOK 07/03 Q1017 NOSIG
Loading
Personal Weather Stations






























Interactive Weather Map New forecast layout! Learn more

10-Day Weather Forecast

Advertisements
Track Severe Weather on mobile